Time;durP1;ratioP1;P1;durP2;ratioP2;P2;SDS_P1;SDS_P2;PMS_P1;PMS_P2;Temp;Humidity;BMP_temperature;BMP_pressure;BME280_temperature;BME280_humidity;BME280_pressure;Samples;Min_cycle;Max_cycle;Signal;HPM_P1;HPM_P2
2023/07/24 00:01:50;;;;;;;4.03;3.33;;;;;;;16.87;100.00;100339.03;5007056;28;20038;-62
2023/07/24 00:04:15;;;;;;;4.50;2.67;;;;;;;16.84;100.00;100331.22;5007588;28;20370;-62
2023/07/24 00:06:40;;;;;;;7.90;3.30;;;;;;;16.84;100.00;100323.34;5005622;28;20113;-62
2023/07/24 00:09:05;;;;;;;4.70;2.70;;;;;;;16.85;100.00;100330.31;5006521;28;20631;-61
2023/07/24 00:11:31;;;;;;;5.78;2.38;;;;;;;16.80;100.00;100328.56;5004317;28;20064;-62
2023/07/24 00:13:56;;;;;;;3.90;3.35;;;;;;;16.84;100.00;100323.34;5006018;28;20025;-62
2023/07/24 00:16:21;;;;;;;4.85;3.53;;;;;;;16.85;100.00;100325.09;5004190;28;20050;-62
2023/07/24 00:18:47;;;;;;;3.63;3.33;;;;;;;16.82;100.00;100325.09;5006001;28;20037;-62
2023/07/24 00:21:13;;;;;;;4.45;3.30;;;;;;;16.84;100.00;100323.34;5004969;28;20026;-61
2023/07/24 00:23:38;;;;;;;6.00;3.65;;;;;;;16.84;100.00;100307.66;5006565;28;20248;-61
2023/07/24 00:26:04;;;;;;;3.97;3.17;;;;;;;16.84;100.00;100315.50;5003221;28;20034;-62
2023/07/24 00:28:29;;;;;;;3.90;3.10;;;;;;;16.84;100.00;100308.50;4988057;28;20026;-62
2023/07/24 00:30:55;;;;;;;4.88;3.55;;;;;;;16.84;100.00;100305.91;5003901;28;20026;-62
2023/07/24 00:33:21;;;;;;;4.50;3.60;;;;;;;16.82;100.00;100305.03;4997115;28;20097;-62
2023/07/24 00:35:46;;;;;;;7.00;3.90;;;;;;;16.81;100.00;100287.59;4987860;28;20026;-62
2023/07/24 00:38:12;;;;;;;4.53;4.10;;;;;;;16.81;100.00;100287.59;4998571;28;20088;-61
2023/07/24 00:40:37;;;;;;;7.85;4.35;;;;;;;16.81;100.00;100290.22;5006706;28;20033;-62
2023/07/24 00:43:02;;;;;;;4.55;4.15;;;;;;;16.80;100.00;100286.72;5007504;28;20029;-62
2023/07/24 00:45:28;;;;;;;5.63;4.57;;;;;;;16.78;100.00;100287.63;5010604;28;20029;-61
2023/07/24 00:47:53;;;;;;;7.50;5.45;;;;;;;16.78;100.00;100283.22;5011105;28;20691;-61
2023/07/24 00:50:19;;;;;;;7.45;4.93;;;;;;;16.78;100.00;100285.84;5009311;28;20013;-62
2023/07/24 00:52:45;;;;;;;6.40;4.82;;;;;;;16.78;100.00;100285.00;4993839;28;20048;-61
2023/07/24 00:55:12;;;;;;;13.13;5.45;;;;;;;16.77;100.00;100284.13;4995101;28;20018;-61
2023/07/24 00:57:37;;;;;;;6.72;5.18;;;;;;;16.76;100.00;100285.00;4993882;28;20037;-62
2023/07/24 01:00:03;;;;;;;9.75;6.07;;;;;;;16.76;100.00;100277.16;4996317;28;20409;-62
2023/07/24 01:02:30;;;;;;;8.90;5.82;;;;;;;16.74;100.00;100276.28;5001604;28;20041;-62
2023/07/24 01:04:55;;;;;;;8.82;6.28;;;;;;;16.72;100.00;100278.03;4998706;28;20374;-62
2023/07/24 01:07:20;;;;;;;9.80;6.32;;;;;;;16.72;100.00;100270.19;4993811;28;20022;-62
2023/07/24 01:09:47;;;;;;;9.10;6.60;;;;;;;16.72;100.00;100267.56;4996936;28;20184;-61
2023/07/24 01:12:32;;;;;;;9.35;6.60;;;;;;;16.70;100.00;100264.06;5003658;28;20474;-61
2023/07/24 01:15:09;;;;;;;9.38;6.22;;;;;;;16.68;100.00;100256.25;5006522;28;20031;-62
2023/07/24 01:17:41;;;;;;;8.50;6.18;;;;;;;16.68;100.00;100250.13;4995408;28;20501;-62
2023/07/24 01:20:11;;;;;;;8.20;6.03;;;;;;;16.69;100.00;100241.44;4998227;28;20062;-62
2023/07/24 01:22:48;;;;;;;8.10;5.97;;;;;;;16.68;100.00;100244.91;4994751;28;20093;-62
2023/07/24 01:25:27;;;;;;;7.85;5.70;;;;;;;16.67;100.00;100246.66;5001833;28;20029;-61
2023/07/24 01:27:52;;;;;;;9.05;6.07;;;;;;;16.68;100.00;100244.91;4992575;28;20030;-62
2023/07/24 01:30:19;;;;;;;8.50;6.15;;;;;;;16.67;100.00;100244.06;4990988;28;20022;-63
2023/07/24 01:32:44;;;;;;;8.55;5.90;;;;;;;16.67;100.00;100244.06;4991926;28;20050;-62
2023/07/24 01:35:10;;;;;;;8.65;6.28;;;;;;;16.71;100.00;100234.44;4997982;28;20062;-62
2023/07/24 01:37:39;;;;;;;8.63;6.10;;;;;;;16.71;100.00;100239.69;4990962;28;20482;-62
2023/07/24 01:40:05;;;;;;;8.90;6.47;;;;;;;16.71;100.00;100244.91;4990464;28;20033;-61
2023/07/24 01:42:31;;;;;;;8.70;6.57;;;;;;;16.74;100.00;100250.13;4991584;28;20293;-61
2023/07/24 01:44:56;;;;;;;10.68;6.70;;;;;;;16.73;100.00;100248.38;4990349;28;20022;-62
2023/07/24 01:47:22;;;;;;;10.02;6.28;;;;;;;16.74;100.00;100254.47;4994594;28;20038;-62
2023/07/24 01:49:47;;;;;;;9.95;6.30;;;;;;;16.76;100.00;100237.91;5008628;28;20034;-62
2023/07/24 01:52:13;;;;;;;9.98;6.20;;;;;;;16.76;100.00;100226.56;4997111;28;20017;-62
2023/07/24 01:54:38;;;;;;;8.38;5.93;;;;;;;16.77;100.00;100223.94;4999862;28;20141;-63
2023/07/24 01:57:04;;;;;;;7.68;6.43;;;;;;;16.75;100.00;100210.00;4997262;28;20128;-62
2023/07/24 01:59:29;;;;;;;8.15;6.63;;;;;;;16.73;100.00;100201.28;5009560;28;20037;-62
2023/07/24 02:01:55;;;;;;;8.75;6.40;;;;;;;16.74;100.00;100212.63;5001511;28;20080;-62
2023/07/24 02:04:22;;;;;;;8.93;6.70;;;;;;;16.73;100.00;100206.50;4990879;28;20066;-63
2023/07/24 02:06:48;;;;;;;9.15;6.65;;;;;;;16.74;100.00;100202.16;5007650;28;20041;-62
2023/07/24 02:09:13;;;;;;;7.75;5.82;;;;;;;16.72;100.00;100199.56;5009736;28;20026;-62
2023/07/24 02:11:39;;;;;;;8.10;5.93;;;;;;;16.72;100.00;100194.31;5004336;28;20036;-63
2023/07/24 02:14:04;;;;;;;5.63;5.05;;;;;;;16.72;100.00;100189.09;5001556;28;20022;-62
2023/07/24 02:16:29;;;;;;;6.50;5.55;;;;;;;16.74;100.00;100186.47;5002847;28;20412;-62
2023/07/24 02:18:54;;;;;;;6.55;5.95;;;;;;;16.73;100.00;100190.81;5001643;28;20037;-62
2023/07/24 02:21:19;;;;;;;10.13;5.30;;;;;;;16.74;100.00;100187.34;5001113;28;20085;-62
2023/07/24 02:23:45;;;;;;;5.80;5.20;;;;;;;16.72;100.00;100183.84;4990049;28;20521;-62
2023/07/24 02:26:10;;;;;;;6.88;5.68;;;;;;;16.73;100.00;100188.19;4996622;28;20069;-62
2023/07/24 02:28:35;;;;;;;6.93;6.13;;;;;;;16.74;100.00;100179.50;4990032;28;20041;-62
2023/07/24 02:31:01;;;;;;;6.90;6.18;;;;;;;16.74;100.00;100184.72;4990193;28;20463;-62
2023/07/24 02:33:26;;;;;;;8.27;7.47;;;;;;;16.73;100.00;100179.50;5002737;28;20018;-62
2023/07/24 02:35:52;;;;;;;10.65;7.90;;;;;;;16.72;100.00;100182.97;4990225;28;20023;-62
2023/07/24 02:38:18;;;;;;;11.48;8.63;;;;;;;16.72;100.00;100188.22;4989610;28;20490;-62
2023/07/24 02:40:44;;;;;;;9.52;8.57;;;;;;;16.72;100.00;100183.84;4990768;28;20054;-61
2023/07/24 02:43:09;;;;;;;11.10;8.63;;;;;;;16.71;100.00;100176.91;5005023;28;20112;-61
2023/07/24 02:45:35;;;;;;;11.15;9.73;;;;;;;16.71;100.00;100184.75;5006217;28;20541;-63
2023/07/24 02:48:01;;;;;;;11.07;9.90;;;;;;;16.71;100.00;100196.94;4993976;28;20232;-62
2023/07/24 02:50:27;;;;;;;11.07;9.90;;;;;;;16.69;100.00;100189.13;4991188;28;20161;-62
2023/07/24 02:52:52;;;;;;;11.10;9.25;;;;;;;16.72;100.00;100183.84;4997612;28;20026;-63
2023/07/24 02:55:17;;;;;;;12.70;8.60;;;;;;;16.71;100.00;100171.66;5008593;28;20109;-62
2023/07/24 02:57:44;;;;;;;9.40;8.23;;;;;;;16.72;100.00;100168.16;5008259;28;20025;-62
2023/07/24 03:00:10;;;;;;;8.07;6.88;;;;;;;16.68;100.00;100166.44;5008347;28;20025;-62
2023/07/24 03:02:35;;;;;;;7.15;6.43;;;;;;;16.72;100.00;100169.91;5008266;28;20033;-61
2023/07/24 03:05:01;;;;;;;9.93;6.00;;;;;;;16.71;100.00;100184.75;5008265;28;20037;-62
2023/07/24 03:07:26;;;;;;;7.85;6.60;;;;;;;16.73;100.00;100190.81;5008222;28;20569;-62
2023/07/24 03:09:51;;;;;;;7.00;6.25;;;;;;;16.73;100.00;100196.06;5007838;28;20532;-63
2023/07/24 03:12:16;;;;;;;5.13;4.63;;;;;;;16.74;100.00;100176.88;5008280;28;20029;-62
2023/07/24 03:14:42;;;;;;;4.53;3.67;;;;;;;16.67;100.00;100169.94;5007519;28;20462;-63
2023/07/24 03:17:07;;;;;;;4.00;3.60;;;;;;;16.60;100.00;100157.75;5007510;28;20026;-63
2023/07/24 03:19:32;;;;;;;5.13;4.18;;;;;;;16.51;100.00;100153.44;5008272;28;20054;-62
2023/07/24 03:21:57;;;;;;;5.60;4.00;;;;;;;16.46;100.00;100166.50;5008407;28;20355;-62
2023/07/24 03:24:23;;;;;;;4.47;3.92;;;;;;;16.46;100.00;100179.56;5008223;28;20026;-62
2023/07/24 03:26:48;;;;;;;4.45;3.72;;;;;;;16.46;100.00;100184.81;5007473;28;20125;-62
2023/07/24 03:29:13;;;;;;;4.90;3.90;;;;;;;16.44;100.00;100189.19;5008238;28;20036;-62
2023/07/24 03:31:39;;;;;;;3.65;3.20;;;;;;;16.41;100.00;100187.44;5007583;28;20431;-62
2023/07/24 03:34:04;;;;;;;4.35;3.22;;;;;;;16.38;100.00;100173.50;5007835;28;20030;-62
2023/07/24 03:36:29;;;;;;;3.85;3.55;;;;;;;16.35;100.00;100163.06;5007338;28;20267;-62
2023/07/24 03:38:54;;;;;;;4.47;3.75;;;;;;;16.28;100.00;100165.69;5007927;28;20029;-63
2023/07/24 03:41:20;;;;;;;3.38;3.08;;;;;;;16.24;100.00;100160.47;5007489;28;20022;-63
2023/07/24 03:43:45;;;;;;;5.30;3.97;;;;;;;16.18;100.00;100158.75;5007619;28;20030;-62
2023/07/24 03:46:10;;;;;;;3.85;3.42;;;;;;;16.19;100.00;100155.28;4991474;28;20018;-62
2023/07/24 03:48:38;;;;;;;4.32;4.00;;;;;;;16.13;100.00;100160.50;4987829;28;20381;-62
2023/07/24 03:51:04;;;;;;;3.90;3.50;;;;;;;16.13;100.00;100158.75;4987907;28;20038;-61
2023/07/24 03:53:29;;;;;;;3.63;3.30;;;;;;;16.10;100.00;100153.53;5001084;28;20462;-62
2023/07/24 03:55:54;;;;;;;5.63;3.40;;;;;;;16.07;100.00;100159.63;4995252;28;20087;-62
2023/07/24 03:58:20;;;;;;;3.88;3.55;;;;;;;16.07;100.00;100154.41;5000350;28;20364;-63
2023/07/24 04:00:46;;;;;;;3.45;2.95;;;;;;;16.05;100.00;100152.66;4989214;28;20065;-62
2023/07/24 04:03:11;;;;;;;5.10;3.50;;;;;;;16.04;100.00;100158.78;5007016;28;20526;-62
2023/07/24 04:05:37;;;;;;;3.47;3.17;;;;;;;16.03;100.00;100160.50;5006739;28;20036;-62
2023/07/24 04:08:02;;;;;;;3.53;3.22;;;;;;;16.05;100.00;100164.00;5007361;28;20182;-62
2023/07/24 04:10:28;;;;;;;3.35;3.05;;;;;;;16.01;100.00;100170.09;5005781;28;20398;-62
2023/07/24 04:12:54;;;;;;;3.60;3.30;;;;;;;16.03;100.00;100170.09;5005364;28;20030;-62
2023/07/24 04:15:20;;;;;;;4.47;3.75;;;;;;;16.04;100.00;100175.34;5004623;28;20029;-62
2023/07/24 04:17:46;;;;;;;5.40;3.85;;;;;;;16.01;100.00;100183.16;5005599;28;20034;-61
2023/07/24 04:20:11;;;;;;;4.40;4.00;;;;;;;15.99;100.00;100174.44;5008406;28;20026;-62
2023/07/24 04:22:36;;;;;;;4.72;4.22;;;;;;;15.99;100.00;100184.00;5009855;28;20036;-62
2023/07/24 04:25:02;;;;;;;5.05;4.20;;;;;;;15.99;100.00;100177.06;5008357;28;20030;-63
2023/07/24 04:27:27;;;;;;;6.22;5.25;;;;;;;16.00;100.00;100172.69;5008813;28;20463;-62
2023/07/24 04:29:52;;;;;;;7.38;5.30;;;;;;;15.98;100.00;100175.28;5009718;28;20026;-62
2023/07/24 04:32:17;;;;;;;5.70;5.10;;;;;;;15.98;100.00;100175.28;5009486;28;20022;-62
2023/07/24 04:34:43;;;;;;;5.18;4.22;;;;;;;15.96;100.00;100177.91;5009114;28;20096;-62
2023/07/24 04:37:08;;;;;;;4.55;4.15;;;;;;;15.93;100.00;100171.81;5009906;28;20052;-62
2023/07/24 04:39:34;;;;;;;5.38;4.53;;;;;;;15.95;100.00;100180.53;5009214;28;20034;-61
2023/07/24 04:41:59;;;;;;;5.13;4.63;;;;;;;15.93;100.00;100177.03;5009715;28;20025;-63
2023/07/24 04:44:24;;;;;;;5.22;4.60;;;;;;;15.96;100.00;100187.47;5011064;28;20029;-62
2023/07/24 04:46:50;;;;;;;4.97;4.20;;;;;;;15.91;100.00;100186.63;5010950;28;20029;-62
2023/07/24 04:49:16;;;;;;;6.10;4.72;;;;;;;15.93;100.00;100184.88;5010802;28;20144;-62
2023/07/24 04:51:41;;;;;;;6.05;5.07;;;;;;;15.91;100.00;100173.56;4999506;28;20038;-62
2023/07/24 04:54:07;;;;;;;4.97;4.47;;;;;;;15.92;100.00;100172.69;5006635;28;20029;-62
2023/07/24 04:56:32;;;;;;;5.38;4.95;;;;;;;15.93;100.00;100183.16;5005588;28;20026;-62
2023/07/24 04:58:57;;;;;;;4.97;4.47;;;;;;;15.96;100.00;100172.69;4998513;28;20022;-62
2023/07/24 05:01:22;;;;;;;5.07;4.10;;;;;;;15.94;100.00;100178.75;4997687;28;20441;-62
2023/07/24 05:03:48;;;;;;;4.45;4.05;;;;;;;15.91;100.00;100177.03;5011348;28;20021;-62
2023/07/24 05:06:13;;;;;;;4.53;4.13;;;;;;;15.90;100.00;100170.06;4997459;28;20025;-62
2023/07/24 05:08:38;;;;;;;5.18;4.68;;;;;;;15.95;100.00;100170.06;5010818;28;20594;-62
2023/07/24 05:11:03;;;;;;;4.88;4.47;;;;;;;15.97;100.00;100181.41;5010181;28;20017;-61
2023/07/24 05:13:29;;;;;;;5.03;4.53;;;;;;;15.97;100.00;100176.19;5010284;28;20032;-62
2023/07/24 05:15:54;;;;;;;4.85;4.45;;;;;;;15.98;100.00;100185.75;5009258;28;20034;-62
2023/07/24 05:18:19;;;;;;;5.00;4.60;;;;;;;15.98;100.00;100185.75;5010864;28;20025;-62
2023/07/24 05:20:51;;;;;;;5.45;4.95;;;;;;;16.01;100.00;100196.22;5010598;28;20449;-62
2023/07/24 05:23:16;;;;;;;;;;;;;;;16.02;100.00;100192.75;5010562;28;20168;-61
2023/07/24 05:25:41;;;;;;;4.82;4.43;;;;;;;16.02;100.00;100197.09;5010039;28;20008;-62
2023/07/24 05:28:06;;;;;;;4.88;4.50;;;;;;;16.02;100.00;100191.88;5009794;28;20032;-63
2023/07/24 05:30:32;;;;;;;5.63;5.15;;;;;;;16.03;100.00;100202.31;5009113;28;20028;-61
2023/07/24 05:32:58;;;;;;;6.35;5.13;;;;;;;16.01;100.00;100200.59;5009726;28;20037;-62
2023/07/24 05:35:23;;;;;;;5.32;4.93;;;;;;;15.99;100.00;100197.06;5009950;28;20037;-62
2023/07/24 05:37:48;;;;;;;5.70;5.20;;;;;;;15.99;100.00;100200.56;5010580;28;20148;-62
2023/07/24 05:40:13;;;;;;;6.60;6.03;;;;;;;16.01;100.00;100190.13;5002975;28;20046;-62
2023/07/24 05:42:41;;;;;;;6.25;5.65;;;;;;;16.01;100.00;100201.44;5004070;28;20580;-62
2023/07/24 05:45:08;;;;;;;6.68;6.07;;;;;;;15.98;100.00;100196.19;5002293;28;20041;-61
2023/07/24 05:47:33;;;;;;;7.25;6.65;;;;;;;16.00;100.00;100194.47;5004736;28;20034;-62
2023/07/24 05:49:58;;;;;;;7.25;6.57;;;;;;;16.00;100.00;100196.22;5006963;28;20517;-62
2023/07/24 05:52:25;;;;;;;7.10;6.50;;;;;;;16.00;100.00;100199.72;4996837;28;20025;-62
2023/07/24 05:54:50;;;;;;;7.72;7.10;;;;;;;16.02;100.00;100205.81;5009575;28;20026;-63
2023/07/24 05:57:15;;;;;;;8.23;7.53;;;;;;;16.02;100.00;100203.19;5010025;28;20059;-63
2023/07/24 05:59:40;;;;;;;7.38;6.60;;;;;;;15.96;100.00;100218.84;5009752;28;20026;-61
2023/07/24 06:02:07;;;;;;;8.07;7.30;;;;;;;15.97;100.00;100225.81;5009969;28;20298;-62
2023/07/24 06:04:32;;;;;;;8.73;7.93;;;;;;;15.98;100.00;100217.09;5003351;28;20064;-62
2023/07/24 06:06:58;;;;;;;8.90;8.13;;;;;;;15.99;100.00;100211.00;4999116;28;20459;-62
2023/07/24 06:09:23;;;;;;;8.70;7.90;;;;;;;16.00;100.00;100210.16;5001962;28;20485;-61
2023/07/24 06:11:48;;;;;;;10.15;8.45;;;;;;;16.05;100.00;100215.38;5008758;28;20123;-63
2023/07/24 06:14:13;;;;;;;10.75;8.80;;;;;;;15.98;100.00;100211.88;5004528;28;20529;-62
2023/07/24 06:16:39;;;;;;;11.02;8.18;;;;;;;16.03;100.00;100218.00;5004504;28;20033;-62
2023/07/24 06:19:04;;;;;;;9.50;8.70;;;;;;;16.09;100.00;100209.28;5005157;28;20018;-61
2023/07/24 06:21:29;;;;;;;10.05;8.60;;;;;;;16.12;100.00;100213.66;5004189;28;20038;-61
2023/07/24 06:23:56;;;;;;;9.32;8.40;;;;;;;16.15;100.00;100217.13;4994329;28;20064;-62
2023/07/24 06:26:21;;;;;;;10.07;8.60;;;;;;;16.19;100.00;100213.63;4996252;28;20029;-62
2023/07/24 06:28:46;;;;;;;8.93;8.00;;;;;;;16.24;100.00;100217.97;5002748;28;20472;-62
2023/07/24 06:31:12;;;;;;;7.65;6.95;;;;;;;16.31;100.00;100214.47;4996372;28;20526;-61
2023/07/24 06:33:37;;;;;;;8.35;7.35;;;;;;;16.40;100.00;100218.81;4998253;28;20033;-62
2023/07/24 06:36:02;;;;;;;7.70;7.00;;;;;;;16.48;100.00;100227.50;4996367;28;20561;-63
2023/07/24 06:38:28;;;;;;;7.40;6.57;;;;;;;16.61;100.00;100225.75;4997782;28;20037;-63
2023/07/24 06:40:54;;;;;;;7.07;6.38;;;;;;;16.65;100.00;100229.22;5000992;28;20022;-62
2023/07/24 06:43:19;;;;;;;6.43;5.70;;;;;;;16.68;100.00;100223.97;5000397;28;20030;-62
2023/07/24 06:45:45;;;;;;;6.05;5.55;;;;;;;16.68;100.00;100217.00;4999747;28;20033;-62
2023/07/24 06:48:10;;;;;;;6.38;5.78;;;;;;;16.59;100.00;100224.00;5002937;28;20104;-62
2023/07/24 06:50:35;;;;;;;7.03;5.25;;;;;;;16.53;100.00;100236.22;5001396;28;20026;-62
2023/07/24 06:53:00;;;;;;;6.18;5.68;;;;;;;16.58;100.00;100227.50;5008129;28;20026;-62
2023/07/24 06:55:26;;;;;;;6.72;6.13;;;;;;;16.60;100.00;100225.75;5008935;28;20497;-61
2023/07/24 06:57:51;;;;;;;8.05;5.63;;;;;;;16.57;100.00;100221.38;5007832;28;20044;-61
2023/07/24 07:00:17;;;;;;;6.82;6.13;;;;;;;16.56;100.00;100222.28;4996984;28;20034;-62
2023/07/24 07:02:42;;;;;;;6.95;6.35;;;;;;;16.57;100.00;100226.63;4987669;28;20015;-61
2023/07/24 07:05:07;;;;;;;7.00;6.30;;;;;;;16.59;100.00;100224.88;4998550;28;20045;-62
2023/07/24 07:07:33;;;;;;;7.80;6.43;;;;;;;16.61;100.00;100224.88;4990914;28;20042;-63
2023/07/24 07:09:58;;;;;;;5.75;5.22;;;;;;;16.62;100.00;100229.25;4993363;28;20088;-63
2023/07/24 07:12:23;;;;;;;6.45;5.75;;;;;;;16.58;100.00;100222.25;4992862;28;20036;-62
2023/07/24 07:14:49;;;;;;;6.55;5.85;;;;;;;16.55;100.00;100229.25;4998672;28;20022;-62
2023/07/24 07:17:14;;;;;;;6.35;5.75;;;;;;;16.59;100.00;100224.00;5007549;28;20109;-62
2023/07/24 07:19:39;;;;;;;7.03;6.32;;;;;;;16.50;100.00;100228.38;4997573;28;20034;-62
2023/07/24 07:22:06;;;;;;;6.85;6.15;;;;;;;16.55;100.00;100225.75;5000233;28;20073;-62
2023/07/24 07:24:31;;;;;;;6.18;5.63;;;;;;;16.53;100.00;100220.53;4999902;28;20018;-62
2023/07/24 07:26:56;;;;;;;5.28;4.78;;;;;;;16.41;100.00;100223.16;4996824;28;20021;-63
2023/07/24 07:29:21;;;;;;;5.53;5.03;;;;;;;16.36;100.00;100222.31;4995141;28;20381;-61
2023/07/24 07:31:47;;;;;;;6.97;4.95;;;;;;;16.38;100.00;100215.34;5006147;28;20040;-63
2023/07/24 07:34:12;;;;;;;7.20;4.68;;;;;;;16.41;100.00;100216.19;5007468;28;20025;-63
2023/07/24 07:36:37;;;;;;;4.07;3.72;;;;;;;16.32;100.00;100222.31;5006642;28;20033;-62
2023/07/24 07:39:03;;;;;;;4.53;3.53;;;;;;;16.35;100.00;100223.19;5007010;28;20030;-62
2023/07/24 07:41:28;;;;;;;4.45;4.05;;;;;;;16.45;100.00;100227.53;5006902;28;20025;-62
2023/07/24 07:43:54;;;;;;;3.42;3.13;;;;;;;16.57;100.00;100226.63;5006582;28;20125;-62
2023/07/24 07:46:19;;;;;;;3.67;3.35;;;;;;;16.74;100.00;100221.34;5004691;28;20460;-63
2023/07/24 07:48:46;;;;;;;3.58;3.22;;;;;;;17.15;100.00;100221.19;5000259;28;20042;-63
2023/07/24 07:51:11;;;;;;;4.45;3.30;;;;;;;17.56;100.00;100215.75;5001655;28;20450;-61
2023/07/24 07:53:38;;;;;;;3.03;2.72;;;;;;;17.90;100.00;100212.81;5004015;28;20133;-63
2023/07/24 07:56:04;;;;;;;3.75;3.00;;;;;;;18.21;100.00;100219.59;5006497;28;20071;-63
2023/07/24 07:58:29;;;;;;;3.13;2.75;;;;;;;18.23;100.00;100213.44;5006765;28;20523;-62
2023/07/24 08:00:54;;;;;;;3.22;2.80;;;;;;;18.30;100.00;100216.00;5006744;28;20092;-63
2023/07/24 08:03:20;;;;;;;3.35;2.88;;;;;;;18.21;100.00;100215.22;5005861;28;20022;-62
2023/07/24 08:05:45;;;;;;;4.60;2.97;;;;;;;18.22;100.00;100219.56;4997681;28;20030;-63
2023/07/24 08:08:11;;;;;;;3.47;3.03;;;;;;;18.15;100.00;100217.88;5001340;28;20474;-63
2023/07/24 08:10:39;;;;;;;4.07;3.42;;;;;;;18.11;100.00;100224.03;5006066;28;20029;-62
2023/07/24 08:13:04;;;;;;;4.47;3.58;;;;;;;17.90;100.00;100222.47;5002197;28;20095;-61
2023/07/24 08:15:35;;;;;;;3.75;3.45;;;;;;;17.89;100.00;100224.22;4995284;28;20549;-62
2023/07/24 08:18:00;;;;;;;5.47;4.10;;;;;;;17.94;100.00;100232.03;4998861;28;20030;-63
2023/07/24 08:20:25;;;;;;;4.05;3.53;;;;;;;18.01;100.00;100215.34;5001218;28;20084;-62
2023/07/24 08:22:50;;;;;;;4.05;3.53;;;;;;;18.11;100.00;100222.25;4997761;28;20040;-62
2023/07/24 08:25:16;;;;;;;4.43;4.10;;;;;;;18.27;100.00;100216.03;5000960;28;20080;-63
2023/07/24 08:27:43;;;;;;;5.05;4.22;;;;;;;18.43;100.00;100206.25;4991419;28;20037;-63
2023/07/24 08:30:08;;;;;;;5.93;3.85;;;;;;;18.60;100.00;100204.31;4996407;28;20037;-63
2023/07/24 08:32:33;;;;;;;5.00;4.57;;;;;;;18.65;100.00;100209.53;4996872;28;20440;-63
2023/07/24 08:34:59;;;;;;;4.63;4.10;;;;;;;18.62;100.00;100217.41;4995660;28;20022;-63
2023/07/24 08:37:24;;;;;;;5.25;4.75;;;;;;;18.59;100.00;100225.31;4996582;28;20022;-61
2023/07/24 08:39:49;;;;;;;6.45;4.50;;;;;;;18.52;100.00;100218.41;4999547;28;20113;-62
2023/07/24 08:42:15;;;;;;;5.20;4.65;;;;;;;18.46;100.00;100207.09;4998609;28;20037;-63
2023/07/24 08:44:42;;;;;;;6.50;5.25;;;;;;;18.46;100.00;100217.59;4999598;28;20464;-62
2023/07/24 08:47:11;;;;;;;6.10;5.50;;;;;;;18.40;100.00;100217.66;5004799;28;20033;-63
2023/07/24 08:49:40;;;;;;;6.53;5.85;;;;;;;18.27;100.00;100216.03;5006402;28;20048;-62
2023/07/24 08:52:06;;;;;;;6.50;5.90;;;;;;;18.17;100.00;100216.13;5006109;28;20033;-63
2023/07/24 08:54:32;;;;;;;6.18;5.68;;;;;;;18.07;100.00;100210.06;5006693;28;20081;-62
2023/07/24 08:56:57;;;;;;;5.65;5.20;;;;;;;18.05;100.00;100203.97;5006730;28;20421;-62
2023/07/24 08:59:23;;;;;;;6.00;5.38;;;;;;;18.11;100.00;100205.66;5006504;28;20037;-63
2023/07/24 09:01:48;;;;;;;6.20;5.60;;;;;;;18.24;100.00;100199.44;5005679;28;20034;-63
2023/07/24 09:04:13;;;;;;;6.38;5.53;;;;;;;18.43;100.00;100195.75;5004751;28;20044;-62
2023/07/24 09:06:39;;;;;;;6.03;5.50;;;;;;;18.51;100.00;100199.16;5010004;28;20038;-62
2023/07/24 09:09:15;;;;;;;6.10;5.18;;;;;;;18.66;100.00;100192.88;5010041;28;20025;-62
2023/07/24 09:11:51;;;;;;;6.32;5.72;;;;;;;18.81;100.00;100190.94;5004363;28;20033;-62
2023/07/24 09:14:32;;;;;;;5.03;4.60;;;;;;;18.91;100.00;100184.69;5010497;28;20021;-62
2023/07/24 09:17:03;;;;;;;5.90;5.30;;;;;;;18.94;100.00;100182.03;5010312;28;20061;-62
2023/07/24 09:19:28;;;;;;;6.32;5.72;;;;;;;18.96;100.00;100177.63;5010277;28;20125;-63
2023/07/24 09:21:54;;;;;;;7.03;5.05;;;;;;;19.13;100.00;100170.44;5009567;28;20645;-62
2023/07/24 09:24:19;;;;;;;5.95;5.45;;;;;;;19.36;100.00;100163.97;5010039;28;20280;-62
2023/07/24 09:26:52;;;;;;;6.82;6.22;;;;;;;19.65;100.00;100167.88;5010281;28;20022;-62
2023/07/24 09:29:18;;;;;;;6.50;5.82;;;;;;;20.06;100.00;100162.00;5009879;28;20033;-63
2023/07/24 09:31:45;;;;;;;5.75;5.18;;;;;;;20.25;100.00;100151.97;5010246;28;20393;-62
2023/07/24 09:34:17;;;;;;;5.65;5.10;;;;;;;20.28;100.00;100157.16;5005098;28;20105;-62
2023/07/24 09:36:43;;;;;;;5.40;4.78;;;;;;;20.19;100.00;100152.09;5003104;28;20284;-62
2023/07/24 09:39:10;;;;;;;6.45;4.85;;;;;;;19.96;100.00;100150.72;4997722;28;20026;-63
2023/07/24 09:41:36;;;;;;;5.55;5.15;;;;;;;19.63;100.00;100143.41;4992792;28;20042;-62
2023/07/24 09:44:01;;;;;;;5.55;4.95;;;;;;;19.52;100.00;100138.31;5008534;28;20029;-62
2023/07/24 09:46:28;;;;;;;5.57;5.07;;;;;;;19.47;100.00;100132.28;5009604;28;20029;-63
2023/07/24 09:48:54;;;;;;;6.60;4.97;;;;;;;19.39;100.00;100128.00;5009379;28;20057;-62
2023/07/24 09:51:20;;;;;;;4.95;4.00;;;;;;;19.31;100.00;100115.03;5009213;28;20665;-63
2023/07/24 09:54:18;;;;;;;3.85;3.45;;;;;;;19.16;100.00;100126.63;5008566;28;20477;-62
2023/07/24 09:56:43;;;;;;;4.68;3.03;;;;;;;19.10;100.00;100118.81;5002641;28;20033;-63
2023/07/24 09:59:10;;;;;;;3.50;3.20;;;;;;;18.98;100.00;100106.72;4998128;28;20540;-63
2023/07/24 10:01:37;;;;;;;3.38;3.08;;;;;;;18.90;100.00;100111.22;5003810;28;20117;-61
2023/07/24 10:04:04;;;;;;;3.17;2.88;;;;;;;18.84;100.00;100112.19;5007516;28;20038;-62
2023/07/24 10:06:29;;;;;;;2.90;2.70;;;;;;;18.77;100.00;100110.53;5008757;28;20014;-62
2023/07/24 10:08:55;;;;;;;3.60;3.30;;;;;;;18.70;100.00;100118.50;5008399;28;20489;-63
2023/07/24 10:11:21;;;;;;;4.32;3.55;;;;;;;18.64;100.00;100120.31;5008868;28;20243;-63
2023/07/24 10:13:47;;;;;;;4.00;3.58;;;;;;;18.57;100.00;100125.66;5008656;28;20022;-62
2023/07/24 10:16:13;;;;;;;3.30;3.10;;;;;;;18.53;100.00;100138.84;5008625;28;20080;-62
2023/07/24 10:18:45;;;;;;;3.55;3.33;;;;;;;18.42;100.00;100145.06;5008246;28;20034;-62
2023/07/24 10:21:11;;;;;;;3.50;3.20;;;;;;;18.38;100.00;100142.50;5007371;28;20466;-63
2023/07/24 10:23:46;;;;;;;3.67;3.38;;;;;;;18.28;100.00;100142.59;5007815;28;20029;-63
2023/07/24 10:26:12;;;;;;;3.30;3.05;;;;;;;18.14;100.00;100148.00;4995867;28;20386;-62
2023/07/24 10:28:39;;;;;;;3.83;3.03;;;;;;;18.05;100.00;100156.78;5006532;28;20030;-62
2023/07/24 10:31:19;;;;;;;4.30;3.95;;;;;;;17.98;100.00;100158.63;5008022;28;20423;-62
2023/07/24 10:33:45;;;;;;;4.10;3.63;;;;;;;17.92;100.00;100161.28;5006173;28;20089;-62
2023/07/24 10:36:13;;;;;;;3.88;3.58;;;;;;;17.95;100.00;100150.75;5008282;28;20250;-61
2023/07/24 10:38:41;;;;;;;4.00;3.60;;;;;;;17.96;100.00;100152.50;5008392;28;20076;-62
2023/07/24 10:41:08;;;;;;;3.72;3.30;;;;;;;18.02;100.00;100140.22;5002697;28;20073;-63
2023/07/24 10:43:47;;;;;;;4.40;4.00;;;;;;;18.04;100.00;100147.19;5008408;28;20033;-62
2023/07/24 10:46:14;;;;;;;4.53;3.67;;;;;;;18.06;100.00;100155.06;4998617;28;20037;-61
2023/07/24 10:48:48;;;;;;;4.28;3.72;;;;;;;18.05;100.00;100158.53;5007533;28;20049;-62
2023/07/24 10:51:16;;;;;;;4.65;4.25;;;;;;;17.96;100.00;100170.84;4994071;28;20057;-61
2023/07/24 10:53:45;;;;;;;4.25;3.90;;;;;;;17.94;100.00;100174.34;5001178;28;20117;-63
2023/07/24 10:56:10;;;;;;;4.50;4.20;;;;;;;17.97;100.00;100172.59;5003473;28;20036;-62
2023/07/24 10:58:35;;;;;;;3.75;3.35;;;;;;;18.09;100.00;100175.97;5005890;28;20037;-62
2023/07/24 11:01:06;;;;;;;4.63;3.85;;;;;;;18.19;100.00;100172.41;5005108;28;20033;-62
2023/07/24 11:03:32;;;;;;;;;;;;;;;18.30;100.00;100153.06;5004131;28;20028;-61
2023/07/24 11:05:58;;;;;;;3.88;3.55;;;;;;;18.35;100.00;100161.75;4998350;28;20339;-62
2023/07/24 11:08:24;;;;;;;3.60;3.30;;;;;;;18.39;100.00;100167.81;5006191;28;20026;-61
2023/07/24 11:10:56;;;;;;;4.13;3.75;;;;;;;18.39;100.00;100158.22;4995145;28;20072;-61
2023/07/24 11:13:24;;;;;;;3.95;3.63;;;;;;;18.51;100.00;100164.22;4999015;28;20555;-62